Pulpca — PHMT — position and weather

sailwx.info

Track history (hours):
 
Tides and Currents Weather Stations Pressure Air Temp Water Temp Dewpoint Dewpoint Depression Visibility Wind Speed Wind Dir Waves Ship Positions

Pulpca

Last reported at 2015-May-28 11:10 UTC. Time now 2015-May-28 11:58 UTC.
Position N 59°49' E 022°57'.

Length 205 m; draft 6.7 m.

Type: Ship (hazmat cat A). MMSI: 245097000.

Date/timePositionNaut miles runAvg speedWind from/ knotsBaromVisibWave heightAir tempDewpointWater temp
2015-May-28 11:10N 59°49' E 022°57'1 0.1
2015-May-28 03:33N 59°49' E 022°56'33517.5
2015-May-27 08:25N 55°45' E 015°47'1618.5
2015-May-27 07:33N 55°36' E 015°24'1918.6
2015-May-27 06:33N 55°27' E 014°55'1818.0
2015-May-27 05:33N 55°16' E 014°30'1818.3
2015-May-27 04:33N 55°02' E 014°08'6418.4
2015-May-27 01:05N 54°36' E 012°27'1018.3
2015-May-27 00:33N 54°30' E 012°15'1817.8
2015-May-26 23:34N 54°20' E 011°49'1818.3
2015-May-26 22:34N 54°11' E 011°22'22 0.5
2015-May-25 04:30N 53°58' E 010°53'1617.3
2015-May-25 03:33N 54°09' E 011°14'2020.0
2015-May-25 02:33N 54°19' E 011°43'1919.0
2015-May-25 01:33N 54°28' E 012°12'1818.4
2015-May-25 00:33N 54°43' E 012°31'2118.8
2015-May-24 23:26N 54°47' E 013°06'2219.5
2015-May-24 22:17N 54°44' E 013°45'1519.7
2015-May-24 21:33N 54°40' E 014°09'1919.6
2015-May-24 20:33N 54°39' E 014°43'2019.8
2015-May-24 19:33N 54°42' E 015°17'2019.9
2015-May-24 18:34N 54°45' E 015°51'6120.0
2015-May-24 15:31N 54°56' E 017°35'1919.8
2015-May-24 14:33N 54°58' E 018°08'1918.9
2015-May-24 13:33N 54°54' E 018°40'1817.8
2015-May-24 12:33N 54°40' E 018°57'1615.9
2015-May-24 11:33N 54°32' E 018°33'1 0.9
2015-May-24 10:33N 54°32' E 018°32'0 0.0
2015-May-24 09:33N 54°32' E 018°32'0 0.0
2015-May-24 08:33N 54°32' E 018°32'0 0.0
2015-May-24 07:33N 54°32' E 018°32'0 0.2
2015-May-24 06:33N 54°32' E 018°32'1110.5
2015-May-24 05:33N 54°34' E 018°50'2020.5
2015-May-24 04:33N 54°53' E 019°03'2121.2
2015-May-24 03:33N 55°13' E 019°15'2121.2
2015-May-24 02:34N 55°33' E 019°26'27620.6
2015-May-23 13:10N 59°43' E 023°05'7 2.8
2015-May-23 10:32N 59°49' E 022°57'0 0.0
2015-May-23 09:30N 59°49' E 022°57'0 0.0
2015-May-23 08:28N 59°49' E 022°57'2 0.3
2015-May-23 03:26N 59°48' E 022°58'33817.9
2015-May-22 08:33N 55°43' E 015°43'1514.7
2015-May-22 07:33N 55°36' E 015°19'1818.4
2015-May-22 06:33N 55°27' E 014°51'1818.0
2015-May-22 05:33N 55°16' E 014°27'1818.4
2015-May-22 04:33N 55°02' E 014°06'6418.6
2015-May-22 01:07N 54°36' E 012°24'1018.3
2015-May-22 00:33N 54°28' E 012°13'1818.0
2015-May-21 23:33N 54°19' E 011°47'1918.5
2015-May-21 22:33N 54°09' E 011°19'9 0.5
2015-May-21 02:33N 54°06' E 011°05'1717.1
2015-May-21 01:33N 54°15' E 011°29'1716.8
2015-May-21 00:33N 54°24' E 011°54'3415.9
2015-May-20 22:25N 54°46' E 012°39'1617.0
2015-May-20 21:28N 54°52' E 013°05'3417.1
2015-May-20 19:30N 55°04' E 013°60'1717.9
2015-May-20 18:32N 55°16' E 014°22'1717.4
2015-May-20 17:33N 55°28' E 014°43'1817.5
2015-May-20 16:31N 55°38' E 015°10'1717.5
2015-May-20 15:33N 55°47' E 015°35'33617.2
2015-May-19 20:04N 59°42' E 023°04'610.0
2015-May-19 19:25N 59°48' E 022°58'1 0.2
2015-May-19 15:26N 59°47' E 022°59'1921.3
2015-May-19 14:33N 59°35' E 023°27'24 6.0
2015-May-19 10:31N 59°20' E 024°05'1414.3
2015-May-19 09:33N 59°28' E 023°43'2121.0
2015-May-19 08:33N 59°41' E 023°10'11 0.7
2015-May-18 16:19N 59°49' E 022°57'4 4.6
2015-May-18 15:30N 59°46' E 023°01'  
Track history (hours):
 
Tides and Currents Weather Stations Pressure Air Temp Water Temp Dewpoint Dewpoint Depression Visibility Wind Speed Wind Dir Waves Ship Positions

Pulpca

Last reported at 2015-May-28 11:10 UTC. Time now 2015-May-28 11:58 UTC.
Position N 59°49' E 022°57'.

Length 205 m; draft 6.7 m.

Type: Ship (hazmat cat A). MMSI: 245097000.

Date/timePositionNaut miles runAvg speedWind from/ knotsBaromVisibWave heightAir tempDewpointWater temp
2015-May-28 11:10N 59°49' E 022°57'1 0.1
2015-May-28 03:33N 59°49' E 022°56'33517.5
2015-May-27 08:25N 55°45' E 015°47'1618.5
2015-May-27 07:33N 55°36' E 015°24'1918.6
2015-May-27 06:33N 55°27' E 014°55'1818.0
2015-May-27 05:33N 55°16' E 014°30'1818.3
2015-May-27 04:33N 55°02' E 014°08'6418.4
2015-May-27 01:05N 54°36' E 012°27'1018.3
2015-May-27 00:33N 54°30' E 012°15'1817.8
2015-May-26 23:34N 54°20' E 011°49'1818.3
2015-May-26 22:34N 54°11' E 011°22'22 0.5
2015-May-25 04:30N 53°58' E 010°53'1617.3
2015-May-25 03:33N 54°09' E 011°14'2020.0
2015-May-25 02:33N 54°19' E 011°43'1919.0
2015-May-25 01:33N 54°28' E 012°12'1818.4
2015-May-25 00:33N 54°43' E 012°31'2118.8
2015-May-24 23:26N 54°47' E 013°06'2219.5
2015-May-24 22:17N 54°44' E 013°45'1519.7
2015-May-24 21:33N 54°40' E 014°09'1919.6
2015-May-24 20:33N 54°39' E 014°43'2019.8
2015-May-24 19:33N 54°42' E 015°17'2019.9
2015-May-24 18:34N 54°45' E 015°51'6120.0
2015-May-24 15:31N 54°56' E 017°35'1919.8
2015-May-24 14:33N 54°58' E 018°08'1918.9
2015-May-24 13:33N 54°54' E 018°40'1817.8
2015-May-24 12:33N 54°40' E 018°57'1615.9
2015-May-24 11:33N 54°32' E 018°33'1 0.9
2015-May-24 10:33N 54°32' E 018°32'0 0.0
2015-May-24 09:33N 54°32' E 018°32'0 0.0
2015-May-24 08:33N 54°32' E 018°32'0 0.0
2015-May-24 07:33N 54°32' E 018°32'0 0.2
2015-May-24 06:33N 54°32' E 018°32'1110.5
2015-May-24 05:33N 54°34' E 018°50'2020.5
2015-May-24 04:33N 54°53' E 019°03'2121.2
2015-May-24 03:33N 55°13' E 019°15'2121.2
2015-May-24 02:34N 55°33' E 019°26'27620.6
2015-May-23 13:10N 59°43' E 023°05'7 2.8
2015-May-23 10:32N 59°49' E 022°57'0 0.0
2015-May-23 09:30N 59°49' E 022°57'0 0.0
2015-May-23 08:28N 59°49' E 022°57'2 0.3
2015-May-23 03:26N 59°48' E 022°58'33817.9
2015-May-22 08:33N 55°43' E 015°43'1514.7
2015-May-22 07:33N 55°36' E 015°19'1818.4
2015-May-22 06:33N 55°27' E 014°51'1818.0
2015-May-22 05:33N 55°16' E 014°27'1818.4
2015-May-22 04:33N 55°02' E 014°06'6418.6
2015-May-22 01:07N 54°36' E 012°24'1018.3
2015-May-22 00:33N 54°28' E 012°13'1818.0
2015-May-21 23:33N 54°19' E 011°47'1918.5
2015-May-21 22:33N 54°09' E 011°19'9 0.5
2015-May-21 02:33N 54°06' E 011°05'1717.1
2015-May-21 01:33N 54°15' E 011°29'1716.8
2015-May-21 00:33N 54°24' E 011°54'3415.9
2015-May-20 22:25N 54°46' E 012°39'1617.0
2015-May-20 21:28N 54°52' E 013°05'3417.1
2015-May-20 19:30N 55°04' E 013°60'1717.9
2015-May-20 18:32N 55°16' E 014°22'1717.4
2015-May-20 17:33N 55°28' E 014°43'1817.5
2015-May-20 16:31N 55°38' E 015°10'1717.5
2015-May-20 15:33N 55°47' E 015°35'33617.2
2015-May-19 20:04N 59°42' E 023°04'610.0
2015-May-19 19:25N 59°48' E 022°58'1 0.2
2015-May-19 15:26N 59°47' E 022°59'1921.3
2015-May-19 14:33N 59°35' E 023°27'24 6.0
2015-May-19 10:31N 59°20' E 024°05'1414.3
2015-May-19 09:33N 59°28' E 023°43'2121.0
2015-May-19 08:33N 59°41' E 023°10'11 0.7
2015-May-18 16:19N 59°49' E 022°57'4 4.6
2015-May-18 15:30N 59°46' E 023°01'  

Dump ship's entire track history